createdAt,value
2024-02-17T00:00:08.278Z,102473.72
2024-02-17T00:02:35.429Z,102478.00
2024-02-17T00:05:02.820Z,102478.84
2024-02-17T00:07:30.080Z,102485.69
2024-02-17T00:09:56.706Z,102496.78
2024-02-17T00:12:23.196Z,102489.94
2024-02-17T00:14:49.938Z,102484.81
2024-02-17T00:17:16.552Z,102486.53
2024-02-17T00:19:43.255Z,102500.19
2024-02-17T00:22:09.783Z,102498.50
2024-02-17T00:24:36.309Z,102506.19
2024-02-17T00:27:03.596Z,102505.31
2024-02-17T00:29:30.419Z,102504.47
2024-02-17T00:31:56.917Z,102508.75
2024-02-17T00:34:24.861Z,102507.03
2024-02-17T00:36:51.882Z,102507.88
2024-02-17T00:39:18.406Z,102517.28
2024-02-17T00:41:45.549Z,102521.56
2024-02-17T00:44:12.321Z,102522.41
2024-02-17T00:46:38.830Z,102520.69
2024-02-17T00:49:05.409Z,102532.66
2024-02-17T00:51:32.120Z,102530.09
2024-02-17T00:53:58.884Z,102534.38
2024-02-17T00:56:25.492Z,102539.50
2024-02-17T00:58:52.185Z,102536.94
2024-02-17T01:01:26.204Z,102532.66
2024-02-17T01:03:59.860Z,102540.34
2024-02-17T01:06:26.776Z,102547.22
2024-02-17T01:08:53.530Z,102550.63
2024-02-17T01:11:20.343Z,102537.81
2024-02-17T01:13:47.618Z,102542.94
2024-02-17T01:16:14.476Z,102540.38
2024-02-17T01:18:41.301Z,102549.78
2024-02-17T01:21:08.026Z,102560.00
2024-02-17T01:23:34.581Z,102554.91
2024-02-17T01:26:01.175Z,102559.16
2024-02-17T01:28:27.644Z,102555.75
2024-02-17T01:30:54.115Z,102553.19
2024-02-17T01:33:20.715Z,102566.84
2024-02-17T01:35:47.210Z,102569.41
2024-02-17T01:38:13.658Z,102574.53
2024-02-17T01:40:40.141Z,102579.66
2024-02-17T01:43:09.530Z,102579.66
2024-02-17T01:45:36.983Z,102568.56
2024-02-17T01:48:04.152Z,102572.84
2024-02-17T01:50:31.230Z,102575.41
2024-02-17T01:52:59.954Z,102580.50
2024-02-17T01:55:28.145Z,102588.19
2024-02-17T01:57:55.152Z,102583.06
2024-02-17T02:00:23.134Z,102594.19
2024-02-17T02:02:50.793Z,102591.63
2024-02-17T02:05:18.276Z,102594.19
2024-02-17T02:07:45.164Z,102603.59
2024-02-17T02:10:12.035Z,102601.91
2024-02-17T02:12:38.660Z,102602.72
2024-02-17T02:15:11.877Z,102602.72
2024-02-17T02:17:39.172Z,102606.19
2024-02-17T02:20:11.635Z,102605.28
2024-02-17T02:22:39.594Z,102611.28
2024-02-17T02:25:07.819Z,102607.84
2024-02-17T02:27:40.999Z,102614.69
2024-02-17T02:30:08.309Z,102614.69
2024-02-17T02:32:34.878Z,102618.09
2024-02-17T02:35:01.425Z,102621.53
2024-02-17T02:37:28.864Z,102621.53
2024-02-17T02:39:55.319Z,102624.09
2024-02-17T02:42:21.918Z,102628.34
2024-02-17T02:44:48.500Z,102629.22
2024-02-17T02:47:16.052Z,102635.19
2024-02-17T02:49:42.517Z,102639.47
2024-02-17T02:52:09.074Z,102642.06
2024-02-17T02:54:35.674Z,102647.19
2024-02-17T02:57:03.012Z,102645.47
2024-02-17T02:59:29.464Z,102648.03
2024-02-17T03:01:55.961Z,102642.06
2024-02-17T03:04:22.885Z,102654.00
2024-02-17T03:06:49.645Z,102658.28
2024-02-17T03:09:16.225Z,102658.28
2024-02-17T03:11:43.672Z,102665.13
2024-02-17T03:14:10.337Z,102670.25
2024-02-17T03:16:40.209Z,102672.81
2024-02-17T03:19:07.203Z,102670.25
2024-02-17T03:21:35.616Z,102671.09
2024-02-17T03:24:03.956Z,102678.78
2024-02-17T03:26:30.447Z,102671.09
2024-02-17T03:28:56.868Z,102673.66
2024-02-17T03:31:25.028Z,102676.22
2024-02-17T03:33:55.792Z,102685.63
2024-02-17T03:36:22.680Z,102687.34
2024-02-17T03:38:49.377Z,102692.47
2024-02-17T03:41:16.588Z,102690.75
2024-02-17T03:43:43.405Z,102692.44
2024-02-17T03:46:09.934Z,102697.56
2024-02-17T03:48:37.551Z,102710.41
2024-02-17T03:51:05.198Z,102707.84
2024-02-17T03:53:31.769Z,102710.41
2024-02-17T03:55:58.319Z,102716.41
2024-02-17T03:58:24.899Z,102722.38
2024-02-17T04:00:51.719Z,102712.97
2024-02-17T04:03:18.391Z,102724.09
2024-02-17T04:05:44.968Z,102724.09
2024-02-17T04:08:11.545Z,102725.78
2024-02-17T04:10:39.191Z,102737.75
2024-02-17T04:13:05.836Z,102736.03
2024-02-17T04:15:32.314Z,102731.78
2024-02-17T04:17:59.020Z,102736.03
2024-02-17T04:20:25.687Z,102741.16
2024-02-17T04:22:52.655Z,102744.59
2024-02-17T04:25:19.357Z,102748.84
2024-02-17T04:27:46.028Z,102743.72
2024-02-17T04:30:13.100Z,102749.72
2024-02-17T04:32:39.645Z,102752.28
2024-02-17T04:35:06.684Z,102761.66
2024-02-17T04:37:33.338Z,102762.53
2024-02-17T04:39:59.882Z,102766.78
2024-02-17T04:42:26.435Z,102771.91
2024-02-17T04:44:53.134Z,102774.47
2024-02-17T04:47:19.547Z,102784.75
2024-02-17T04:49:46.062Z,102786.47
2024-02-17T04:52:12.520Z,102795.00
2024-02-17T04:54:38.988Z,102794.16
2024-02-17T04:57:05.601Z,102805.25
2024-02-17T04:59:32.102Z,102812.94
2024-02-17T05:01:58.602Z,102811.25
2024-02-17T05:04:25.246Z,102823.19
2024-02-17T05:06:52.035Z,102822.34
2024-02-17T05:09:18.701Z,102824.91
2024-02-17T05:11:45.259Z,102829.19
2024-02-17T05:14:16.778Z,102836.00
2024-02-17T05:16:46.331Z,102829.16
2024-02-17T05:19:16.339Z,102841.13
2024-02-17T05:21:46.084Z,102834.28
2024-02-17T05:24:12.717Z,102834.28
2024-02-17T05:26:40.556Z,102836.00
2024-02-17T05:29:07.625Z,102845.41
2024-02-17T05:31:35.557Z,102841.13
2024-02-17T05:34:04.183Z,102853.94
2024-02-17T05:36:31.042Z,102858.22
2024-02-17T05:38:57.623Z,102858.22
2024-02-17T05:41:24.370Z,102857.34
2024-02-17T05:43:50.979Z,102859.06
2024-02-17T05:46:17.645Z,102873.59
2024-02-17T05:48:45.996Z,102876.16
2024-02-17T05:51:12.701Z,102882.13
2024-02-17T05:53:40.267Z,102884.69
2024-02-17T05:56:07.461Z,102888.09
2024-02-17T05:58:34.055Z,102893.22
2024-02-17T06:01:02.586Z,102886.41
2024-02-17T06:03:29.437Z,102893.22
2024-02-17T06:05:56.164Z,102908.59
2024-02-17T06:08:23.126Z,102912.88
2024-02-17T06:10:50.063Z,102903.47
2024-02-17T06:13:16.801Z,102909.44
2024-02-17T06:15:44.699Z,102908.59
2024-02-17T06:18:29.876Z,102902.63
2024-02-17T06:21:11.893Z,102904.28
2024-02-17T06:23:38.916Z,102922.25
2024-02-17T06:26:05.540Z,102923.94
2024-02-17T06:28:31.987Z,102921.38
2024-02-17T06:30:58.465Z,102935.91
2024-02-17T06:33:25.093Z,102931.63
2024-02-17T06:35:51.835Z,102929.91
2024-02-17T06:38:18.814Z,102940.97
2024-02-17T06:40:46.459Z,102941.88
2024-02-17T06:43:12.931Z,102941.00
2024-02-17T06:45:40.166Z,102945.28
2024-02-17T06:48:07.099Z,102946.09
2024-02-17T06:50:33.543Z,102944.41
2024-02-17T06:52:59.992Z,102958.88
2024-02-17T06:55:26.438Z,102958.03
2024-02-17T06:57:52.924Z,102962.31
2024-02-17T07:00:20.175Z,102958.03
2024-02-17T07:02:46.873Z,102959.75
2024-02-17T07:05:15.862Z,102963.16
2024-02-17T07:07:42.363Z,102975.97
2024-02-17T07:10:09.642Z,102983.66
2024-02-17T07:12:36.733Z,102987.03
2024-02-17T07:15:03.784Z,102991.34
2024-02-17T07:17:30.318Z,102989.63
2024-02-17T07:19:57.036Z,102987.94
2024-02-17T07:22:23.972Z,102997.31
2024-02-17T07:24:52.384Z,102997.31
2024-02-17T07:27:18.870Z,102998.25
2024-02-17T07:29:45.386Z,103012.78
2024-02-17T07:32:12.233Z,103013.63
2024-02-17T07:34:43.171Z,103022.19
2024-02-17T07:37:09.824Z,103032.44
2024-02-17T07:39:39.009Z,103030.78
2024-02-17T07:42:08.005Z,103034.19
2024-02-17T07:44:37.061Z,103045.31
2024-02-17T07:47:04.480Z,103048.75
2024-02-17T07:49:32.518Z,103047.91
2024-02-17T07:51:59.898Z,103047.94
2024-02-17T07:54:26.433Z,103053.06
2024-02-17T07:56:52.870Z,103054.81
2024-02-17T07:59:19.303Z,103055.66
2024-02-17T08:01:45.859Z,103059.94
2024-02-17T08:04:12.492Z,103053.09
2024-02-17T08:06:39.100Z,103061.69
2024-02-17T08:09:07.607Z,103061.69
2024-02-17T08:11:37.096Z,103065.13
2024-02-17T08:14:05.715Z,103072.84
2024-02-17T08:16:33.181Z,103080.56
2024-02-17T08:18:59.821Z,103084.84
2024-02-17T08:21:26.496Z,103089.97
2024-02-17T08:23:53.012Z,103101.13
2024-02-17T08:26:20.937Z,103104.56
2024-02-17T08:28:47.616Z,103108.88
2024-02-17T08:31:14.230Z,103111.44
2024-02-17T08:33:40.985Z,103108.91
2024-02-17T08:36:07.966Z,103110.66
2024-02-17T08:38:34.740Z,103103.84
2024-02-17T08:41:03.982Z,103114.13
2024-02-17T08:43:30.635Z,103113.31
2024-02-17T08:45:57.661Z,103115.06
2024-02-17T08:48:24.517Z,103116.75
2024-02-17T08:50:52.767Z,103121.88
2024-02-17T08:53:19.993Z,103117.63
2024-02-17T08:55:46.537Z,103116.81
2024-02-17T08:58:13.478Z,103123.63
2024-02-17T09:00:40.432Z,103129.66
2024-02-17T09:03:07.594Z,103122.81
2024-02-17T09:05:36.872Z,103124.53
2024-02-17T09:08:03.593Z,103129.69
2024-02-17T09:10:30.049Z,103128.84
2024-02-17T09:12:56.663Z,103138.28
2024-02-17T09:15:23.381Z,103140.03
2024-02-17T09:17:50.155Z,103140.88
2024-02-17T09:20:16.938Z,103140.03
2024-02-17T09:22:43.535Z,103137.47
2024-02-17T09:25:10.238Z,103146.06
2024-02-17T09:27:36.840Z,103145.25
2024-02-17T09:30:05.474Z,103140.09
2024-02-17T09:32:32.051Z,103142.69
2024-02-17T09:34:58.602Z,103153.81
2024-02-17T09:37:25.109Z,103164.97
2024-02-17T09:39:51.665Z,103161.50
2024-02-17T09:42:18.449Z,103163.25
2024-02-17T09:44:44.948Z,103158.97
2024-02-17T09:47:12.285Z,103159.00
2024-02-17T09:49:40.307Z,103166.69
2024-02-17T09:52:07.532Z,103162.47
2024-02-17T09:54:34.993Z,103165.88
2024-02-17T09:57:01.922Z,103175.31
2024-02-17T09:59:28.376Z,103175.31
2024-02-17T10:01:55.042Z,103176.22
2024-02-17T10:04:23.768Z,103172.78
2024-02-17T10:07:02.086Z,103172.78
2024-02-17T10:09:31.025Z,103173.63
2024-02-17T10:11:59.935Z,103176.22
2024-02-17T10:14:28.678Z,103175.31
2024-02-17T10:16:59.938Z,103177.06
2024-02-17T10:19:26.708Z,103172.78
2024-02-17T10:21:54.767Z,103182.19
2024-02-17T10:24:22.776Z,103177.03
2024-02-17T10:26:56.166Z,103172.75
2024-02-17T10:29:24.878Z,103186.50
2024-02-17T10:31:51.666Z,103185.63
2024-02-17T10:34:18.746Z,103192.44
2024-02-17T10:36:45.540Z,103195.88
2024-02-17T10:39:14.917Z,103195.91
2024-02-17T10:41:41.509Z,103202.75
2024-02-17T10:44:08.056Z,103210.47
2024-02-17T10:46:38.387Z,103206.16
2024-02-17T10:49:29.015Z,103215.63
2024-02-17T10:52:04.963Z,103215.63
2024-02-17T10:54:56.188Z,103213.03
2024-02-17T10:57:23.787Z,103213.88
2024-02-17T10:59:55.209Z,103212.97
2024-02-17T11:02:27.017Z,103220.69
2024-02-17T11:04:54.049Z,103223.25
2024-02-17T11:07:21.275Z,103225.81
2024-02-17T11:09:47.862Z,103230.09
2024-02-17T11:12:49.156Z,103230.94
2024-02-17T11:15:15.707Z,103232.69
2024-02-17T11:17:52.982Z,103231.84
2024-02-17T11:20:21.169Z,103229.25
2024-02-17T11:22:50.872Z,103241.28
2024-02-17T11:25:31.383Z,103246.41
2024-02-17T11:27:59.499Z,103245.59
2024-02-17T11:30:26.317Z,103250.72
2024-02-17T11:32:57.554Z,103248.16
2024-02-17T11:35:25.217Z,103257.59
2024-02-17T11:37:54.974Z,103261.00
2024-02-17T11:40:21.948Z,103260.97
2024-02-17T11:42:48.636Z,103267.00
2024-02-17T11:45:17.855Z,103262.66
2024-02-17T11:47:44.353Z,103260.09
2024-02-17T11:50:14.603Z,103255.81
2024-02-17T11:52:42.175Z,103265.25
2024-02-17T11:55:09.831Z,103260.13
2024-02-17T11:57:40.855Z,103257.56
2024-02-17T12:00:12.451Z,103265.31
2024-02-17T12:02:48.334Z,103256.72
2024-02-17T12:05:17.083Z,103267.03
2024-02-17T12:07:43.712Z,103266.16
2024-02-17T12:10:11.004Z,103264.44
2024-02-17T12:12:40.447Z,103261.84
2024-02-17T12:15:16.385Z,103273.88
2024-02-17T12:17:46.635Z,103269.53
2024-02-17T12:20:15.360Z,103266.94
2024-02-17T12:22:44.831Z,103271.22
2024-02-17T12:25:11.697Z,103272.94
2024-02-17T12:27:39.314Z,103269.50
2024-02-17T12:30:07.864Z,103269.53
2024-02-17T12:32:41.416Z,103265.22
2024-02-17T12:35:11.507Z,103265.16
2024-02-17T12:37:44.748Z,103274.63
2024-02-17T12:40:19.996Z,103272.03
2024-02-17T12:42:51.880Z,103266.06
2024-02-17T12:45:33.340Z,103270.38
2024-02-17T12:48:04.468Z,103270.38
2024-02-17T12:50:32.444Z,103271.22
2024-02-17T12:53:12.893Z,103277.25
2024-02-17T12:55:39.308Z,103272.97
2024-02-17T12:58:06.878Z,103273.84
2024-02-17T13:00:33.430Z,103273.03
2024-02-17T13:02:59.877Z,103271.28
2024-02-17T13:05:27.093Z,103271.28
2024-02-17T13:07:54.005Z,103266.97
2024-02-17T13:10:20.654Z,103273.84
2024-02-17T13:12:47.239Z,103266.97
2024-02-17T13:15:17.755Z,103273.00
2024-02-17T13:17:44.387Z,103264.41
2024-02-17T13:20:13.548Z,103272.94
2024-02-17T13:22:43.092Z,103261.78
2024-02-17T13:25:12.830Z,103257.41
2024-02-17T13:27:42.244Z,103261.72
2024-02-17T13:30:11.260Z,103272.84
2024-02-17T13:32:43.893Z,103278.00
2024-02-17T13:37:38.485Z,103268.56
2024-02-17T13:40:07.854Z,103275.47
2024-02-17T13:42:35.497Z,103270.31
2024-02-17T13:45:01.991Z,103270.31
2024-02-17T13:47:34.181Z,103267.72
2024-02-17T13:50:01.318Z,103269.41
2024-02-17T13:52:27.979Z,103268.53
2024-02-17T13:54:55.276Z,103265.06
2024-02-17T13:57:21.838Z,103267.69
2024-02-17T13:59:48.385Z,103272.84
2024-02-17T14:02:14.919Z,103269.41
2024-02-17T14:04:41.390Z,103275.44
2024-02-17T14:07:08.445Z,103274.56
2024-02-17T14:09:35.105Z,103272.91
2024-02-17T14:12:01.716Z,103275.47
2024-02-17T14:14:28.246Z,103277.16
2024-02-17T14:16:58.026Z,103271.13
2024-02-17T14:19:25.908Z,103270.25
2024-02-17T14:21:52.491Z,103274.56
2024-02-17T14:24:20.312Z,103273.66
2024-02-17T14:26:47.001Z,103273.66
2024-02-17T14:29:13.488Z,103282.25
2024-02-17T14:31:43.117Z,103281.41
2024-02-17T14:34:09.620Z,103283.09
2024-02-17T14:36:36.577Z,103283.94
2024-02-17T14:39:03.734Z,103283.13
2024-02-17T14:41:30.289Z,103289.16
2024-02-17T14:43:56.729Z,103286.59
2024-02-17T14:46:23.901Z,103284.00
2024-02-17T14:48:50.549Z,103290.06
2024-02-17T14:51:17.304Z,103295.19
2024-02-17T14:53:43.803Z,103296.94
2024-02-17T14:56:10.551Z,103288.34
2024-02-17T14:58:37.365Z,103288.34
2024-02-17T15:01:04.146Z,103291.78
2024-02-17T15:03:30.880Z,103290.06
2024-02-17T15:05:58.784Z,103286.59
2024-02-17T15:08:25.401Z,103286.63
2024-02-17T15:10:51.885Z,103289.25
2024-02-17T15:13:18.522Z,103290.94
2024-02-17T15:15:49.783Z,103297.84
2024-02-17T15:18:26.482Z,103304.72
2024-02-17T15:20:53.614Z,103307.31
2024-02-17T15:23:20.131Z,103300.44
2024-02-17T15:25:48.867Z,103307.34
2024-02-17T15:28:16.420Z,103303.06
2024-02-17T15:30:45.948Z,103309.06
2024-02-17T15:33:16.222Z,103301.38
2024-02-17T15:35:46.670Z,103297.06
2024-02-17T15:38:16.462Z,103297.88
2024-02-17T15:40:44.120Z,103308.22
2024-02-17T15:43:10.711Z,103305.66
2024-02-17T15:45:37.188Z,103314.22
2024-02-17T15:48:03.982Z,103315.94
2024-02-17T15:50:30.400Z,103315.97
2024-02-17T15:52:56.844Z,103322.81
2024-02-17T15:55:23.584Z,103326.28
2024-02-17T15:57:52.002Z,103321.13
2024-02-17T16:00:22.623Z,103315.97
2024-02-17T16:02:50.396Z,103324.56
2024-02-17T16:05:17.506Z,103325.44
2024-02-17T16:07:44.219Z,103319.44
2024-02-17T16:10:11.002Z,103319.44
2024-02-17T16:12:38.239Z,103318.56
2024-02-17T16:15:08.634Z,103322.00
2024-02-17T16:17:35.407Z,103322.88
2024-02-17T16:20:05.582Z,103319.41
2024-02-17T16:22:32.088Z,103316.88
2024-02-17T16:24:58.869Z,103317.72
2024-02-17T16:27:25.439Z,103315.16
2024-02-17T16:29:52.085Z,103320.31
2024-02-17T16:32:18.649Z,103321.19
2024-02-17T16:34:47.145Z,103315.16
2024-02-17T16:37:13.629Z,103306.56
2024-02-17T16:39:40.113Z,103315.13
2024-02-17T16:42:06.558Z,103315.13
2024-02-17T16:44:33.751Z,103310.00
2024-02-17T16:47:00.373Z,103311.69
2024-02-17T16:49:26.949Z,103310.84
2024-02-17T16:51:53.866Z,103309.09
2024-02-17T16:54:20.455Z,103308.22
2024-02-17T16:56:47.253Z,103309.94
2024-02-17T16:59:14.474Z,103308.19
2024-02-17T17:01:41.032Z,103302.16
2024-02-17T17:04:07.782Z,103297.00
2024-02-17T17:06:35.456Z,103304.72
2024-02-17T17:09:02.045Z,103297.00
2024-02-17T17:11:30.672Z,103303.88
2024-02-17T17:13:57.833Z,103301.31
2024-02-17T17:16:24.871Z,103315.00
2024-02-17T17:18:51.716Z,103310.75
2024-02-17T17:21:19.004Z,103313.34
2024-02-17T17:23:45.458Z,103315.91
2024-02-17T17:26:11.913Z,103311.63
2024-02-17T17:28:39.875Z,103305.63
2024-02-17T17:31:06.845Z,103309.03
2024-02-17T17:33:34.102Z,103306.47
2024-02-17T17:36:05.583Z,103307.31
2024-02-17T17:38:32.052Z,103306.47
2024-02-17T17:40:58.519Z,103303.88
2024-02-17T17:43:25.066Z,103308.19
2024-02-17T17:45:51.564Z,103306.47
2024-02-17T17:48:18.202Z,103307.28
2024-02-17T17:50:46.936Z,103301.31
2024-02-17T17:53:15.868Z,103308.13
2024-02-17T17:55:42.632Z,103304.72
2024-02-17T17:58:09.444Z,103314.16
2024-02-17T18:00:36.034Z,103309.84
2024-02-17T18:03:02.657Z,103315.84
2024-02-17T18:05:29.228Z,103315.78
2024-02-17T18:07:55.818Z,103324.38
2024-02-17T18:10:22.838Z,103323.53
2024-02-17T18:12:49.540Z,103322.66
2024-02-17T18:15:16.138Z,103320.94
2024-02-17T18:17:43.988Z,103321.78
2024-02-17T18:20:11.090Z,103314.06
2024-02-17T18:22:37.517Z,103318.34
2024-02-17T18:25:04.754Z,103320.91
2024-02-17T18:27:31.271Z,103320.03
2024-02-17T18:29:57.693Z,103322.59
2024-02-17T18:32:24.424Z,103315.75
2024-02-17T18:34:50.994Z,103322.59
2024-02-17T18:37:17.450Z,103328.63
2024-02-17T18:39:46.085Z,103322.59
2024-02-17T18:42:13.045Z,103324.31
2024-02-17T18:44:41.775Z,103321.75
2024-02-17T18:47:08.466Z,103330.31
2024-02-17T18:49:34.994Z,103320.91
2024-02-17T18:52:04.216Z,103326.88
2024-02-17T18:54:31.367Z,103327.75
2024-02-17T18:56:57.855Z,103323.47
2024-02-17T18:59:24.261Z,103326.03
2024-02-17T19:01:50.743Z,103320.00
2024-02-17T19:04:17.336Z,103323.47
2024-02-17T19:06:44.021Z,103325.16
2024-02-17T19:09:11.166Z,103328.56
2024-02-17T19:11:37.836Z,103326.88
2024-02-17T19:14:04.292Z,103323.47
2024-02-17T19:16:30.806Z,103319.16
2024-02-17T19:18:57.494Z,103326.88
2024-02-17T19:21:24.053Z,103314.84
2024-02-17T19:23:50.580Z,103317.44
2024-02-17T19:26:17.051Z,103317.41
2024-02-17T19:28:43.453Z,103319.13
2024-02-17T19:31:09.963Z,103318.25
2024-02-17T19:33:38.359Z,103317.41
2024-02-17T19:36:06.043Z,103313.13
2024-02-17T19:38:32.677Z,103315.69
2024-02-17T19:41:00.845Z,103315.69
2024-02-17T19:43:27.508Z,103307.97
2024-02-17T19:45:53.993Z,103313.13
2024-02-17T19:48:20.561Z,103308.88
2024-02-17T19:50:47.153Z,103310.56
2024-02-17T19:53:13.626Z,103313.13
2024-02-17T19:55:40.353Z,103316.56
2024-02-17T19:58:09.699Z,103309.72
2024-02-17T20:00:36.828Z,103315.69
2024-02-17T20:03:03.594Z,103311.44
2024-02-17T20:05:30.218Z,103321.72
2024-02-17T20:07:56.675Z,103324.28
2024-02-17T20:10:23.123Z,103325.13
2024-02-17T20:12:49.978Z,103330.28
2024-02-17T20:15:19.390Z,103331.13
2024-02-17T20:17:46.974Z,103328.56
2024-02-17T20:20:17.027Z,103332.84
2024-02-17T20:22:44.089Z,103333.69
2024-02-17T20:25:11.832Z,103325.97
2024-02-17T20:27:38.469Z,103325.97
2024-02-17T20:30:05.652Z,103323.41
2024-02-17T20:32:32.157Z,103326.84
2024-02-17T20:34:58.633Z,103322.56
2024-02-17T20:37:25.150Z,103328.56
2024-02-17T20:39:51.778Z,103314.00
2024-02-17T20:42:18.349Z,103320.00
2024-02-17T20:44:44.822Z,103315.69
2024-02-17T20:47:11.774Z,103313.97
2024-02-17T20:49:38.325Z,103319.09
2024-02-17T20:52:05.279Z,103314.81
2024-02-17T20:54:31.852Z,103316.50
2024-02-17T20:56:58.638Z,103308.78
2024-02-17T20:59:25.050Z,103308.78
2024-02-17T21:01:51.633Z,103306.22
2024-02-17T21:04:19.370Z,103305.38
2024-02-17T21:06:47.533Z,103300.22
2024-02-17T21:09:15.377Z,103297.66
2024-02-17T21:11:41.874Z,103290.78
2024-02-17T21:14:10.040Z,103289.94
2024-02-17T21:16:41.359Z,103297.66
2024-02-17T21:19:08.034Z,103295.06
2024-02-17T21:21:35.532Z,103290.78
2024-02-17T21:24:02.206Z,103285.63
2024-02-17T21:26:28.961Z,103283.06
2024-02-17T21:29:00.956Z,103287.34
2024-02-17T21:31:28.473Z,103293.34
2024-02-17T21:33:55.287Z,103288.19
2024-02-17T21:36:22.370Z,103283.06
2024-02-17T21:38:48.817Z,103286.47
2024-02-17T21:41:15.228Z,103290.78
2024-02-17T21:43:41.690Z,103286.47
2024-02-17T21:46:10.094Z,103282.22
2024-02-17T21:48:36.700Z,103282.22
2024-02-17T21:51:03.953Z,103283.91
2024-02-17T21:53:30.511Z,103279.66
2024-02-17T21:55:58.274Z,103286.50
2024-02-17T21:58:24.839Z,103285.63
2024-02-17T22:00:54.008Z,103277.94
2024-02-17T22:03:20.917Z,103277.94
2024-02-17T22:05:47.408Z,103281.34
2024-02-17T22:08:13.867Z,103270.22
2024-02-17T22:10:40.378Z,103281.34
2024-02-17T22:13:06.869Z,103281.34
2024-02-17T22:15:33.460Z,103275.34
2024-02-17T22:18:00.156Z,103280.50
2024-02-17T22:20:26.596Z,103271.94
2024-02-17T22:22:53.089Z,103267.66
2024-02-17T22:25:19.826Z,103265.06
2024-02-17T22:27:46.393Z,103270.22
2024-02-17T22:30:13.110Z,103264.19
2024-02-17T22:32:39.763Z,103260.75
2024-02-17T22:35:06.879Z,103261.59
2024-02-17T22:37:33.459Z,103264.16
2024-02-17T22:39:59.957Z,103260.75
2024-02-17T22:42:26.593Z,103253.88
2024-02-17T22:44:53.050Z,103247.88
2024-02-17T22:47:19.479Z,103252.13
2024-02-17T22:49:46.189Z,103252.09
2024-02-17T22:52:12.827Z,103246.06
2024-02-17T22:54:40.320Z,103254.63
2024-02-17T22:57:07.866Z,103246.88
2024-02-17T22:59:34.455Z,103239.13
2024-02-17T23:02:01.308Z,103246.00
2024-02-17T23:04:27.875Z,103240.84
2024-02-17T23:06:54.405Z,103235.69
2024-02-17T23:09:20.890Z,103233.06
2024-02-17T23:11:47.412Z,103234.81
2024-02-17T23:14:14.955Z,103225.34
2024-02-17T23:16:44.153Z,103221.94
2024-02-17T23:19:12.001Z,103218.53
2024-02-17T23:21:45.489Z,103214.22
2024-02-17T23:24:13.502Z,103209.94
2024-02-17T23:26:39.910Z,103206.56
2024-02-17T23:29:06.425Z,103212.53
2024-02-17T23:31:33.100Z,103211.69
2024-02-17T23:33:59.791Z,103203.13
2024-02-17T23:36:26.490Z,103203.97
2024-02-17T23:38:52.895Z,103209.13
2024-02-17T23:41:19.343Z,103214.25
2024-02-17T23:43:45.828Z,103213.41
2024-02-17T23:46:12.346Z,103210.84
2024-02-17T23:48:38.890Z,103215.16
2024-02-17T23:51:06.291Z,103204.88
2024-02-17T23:53:32.856Z,103192.88
2024-02-17T23:55:59.487Z,103190.31
2024-02-17T23:58:25.878Z,103197.13
